Time;durP1;ratioP1;P1;durP2;ratioP2;P2;SDS_P1;SDS_P2;PMS_P1;PMS_P2;Temp;Humidity;BMP_temperature;BMP_pressure;BME280_temperature;BME280_humidity;BME280_pressure;Samples;Min_cycle;Max_cycle;Signal;HPM_P1;HPM_P2
2022/03/03 00:00:54;;;;;;;32.00;15.88;;;;;;;2.54;81.08;99915.80;1713093;82;21846;-74
2022/03/03 00:03:21;;;;;;;43.50;16.23;;;;;;;2.56;81.09;99911.80;1712903;83;21033;-74
2022/03/03 00:05:48;;;;;;;43.52;15.95;;;;;;;2.56;81.06;99911.34;1712671;82;21552;-74
2022/03/03 00:08:15;;;;;;;51.42;17.17;;;;;;;2.58;81.08;99919.08;1711155;82;21424;-74
2022/03/03 00:10:43;;;;;;;34.38;17.67;;;;;;;2.59;81.03;99912.94;1710740;84;20958;-74
2022/03/03 00:13:12;;;;;;;35.83;17.05;;;;;;;2.59;81.01;99909.86;1711794;83;21037;-74
2022/03/03 00:15:39;;;;;;;30.20;17.77;;;;;;;2.61;81.07;99910.27;1710657;83;21022;-75
2022/03/03 00:18:06;;;;;;;33.65;16.73;;;;;;;2.63;81.11;99920.98;1710802;83;21365;-74
2022/03/03 00:20:33;;;;;;;34.00;16.93;;;;;;;2.64;81.11;99913.54;1710977;83;20969;-74
2022/03/03 00:23:00;;;;;;;23.62;16.35;;;;;;;2.65;81.08;99911.77;1711778;83;21492;-75
2022/03/03 00:25:28;;;;;;;27.58;16.42;;;;;;;2.64;81.08;99908.33;1711891;83;21892;-73
2022/03/03 00:27:55;;;;;;;24.35;16.42;;;;;;;2.66;81.03;99912.15;1714125;83;20938;-74
2022/03/03 00:30:23;;;;;;;30.62;17.20;;;;;;;2.65;81.00;99913.92;1713860;82;20978;-74
2022/03/03 00:32:50;;;;;;;29.95;17.50;;;;;;;2.66;80.96;99910.38;1711695;84;21045;-73
2022/03/03 00:35:19;;;;;;;27.32;17.32;;;;;;;2.67;80.96;99907.31;1711758;83;21052;-74
2022/03/03 00:37:46;;;;;;;28.62;17.98;;;;;;;2.69;80.97;99906.30;1711255;84;22495;-74
2022/03/03 00:40:13;;;;;;;28.75;17.50;;;;;;;2.71;81.02;99903.16;1711090;84;21009;-73
2022/03/03 00:42:40;;;;;;;27.85;17.25;;;;;;;2.74;81.06;99900.84;1710642;84;21052;-74
2022/03/03 00:45:09;;;;;;;29.15;17.82;;;;;;;2.77;81.07;99898.90;1711936;82;21528;-74
2022/03/03 00:47:37;;;;;;;25.52;17.02;;;;;;;2.79;81.03;99895.73;1711040;84;20966;-74
2022/03/03 00:50:05;;;;;;;25.23;17.32;;;;;;;2.81;80.98;99889.16;1710811;84;21827;-74
2022/03/03 00:52:32;;;;;;;25.20;17.17;;;;;;;2.80;80.89;99879.66;1712962;83;21001;-74
2022/03/03 00:55:00;;;;;;;23.50;15.85;;;;;;;2.80;80.87;99883.56;1713310;83;21013;-75
2022/03/03 00:57:28;;;;;;;21.50;15.25;;;;;;;2.78;80.87;99875.80;1711039;82;21465;-75
2022/03/03 00:59:57;;;;;;;22.02;15.63;;;;;;;2.78;80.81;99875.80;1711804;83;20954;-74
2022/03/03 01:02:24;;;;;;;22.20;15.85;;;;;;;2.77;80.79;99873.28;1710949;83;21841;-74
2022/03/03 01:04:51;;;;;;;22.40;15.20;;;;;;;2.74;80.72;99867.78;1711619;83;20989;-74
2022/03/03 01:07:18;;;;;;;24.18;16.55;;;;;;;2.75;80.73;99860.80;1710936;82;21022;-74
2022/03/03 01:09:45;;;;;;;25.27;17.07;;;;;;;2.75;80.72;99862.94;1711693;83;21010;-74
2022/03/03 01:12:12;;;;;;;23.92;16.23;;;;;;;2.76;80.71;99855.49;1711418;83;21512;-74
2022/03/03 01:14:39;;;;;;;22.13;16.52;;;;;;;2.77;80.72;99853.73;1710931;83;22465;-74
2022/03/03 01:17:07;;;;;;;25.08;17.10;;;;;;;2.75;80.63;99856.42;1711102;83;20942;-74
2022/03/03 01:19:34;;;;;;;23.35;15.88;;;;;;;2.76;80.65;99855.95;1711123;82;21449;-74
2022/03/03 01:22:01;;;;;;;21.45;15.48;;;;;;;2.75;80.63;99856.42;1711827;83;21006;-75
2022/03/03 01:24:29;;;;;;;21.68;16.20;;;;;;;2.76;80.63;99850.28;1710821;84;21575;-74
2022/03/03 01:26:56;;;;;;;22.20;16.25;;;;;;;2.79;80.58;99853.17;1711936;82;21798;-74
2022/03/03 01:29:24;;;;;;;23.90;15.98;;;;;;;2.79;80.57;99852.70;1702330;83;20946;-74
2022/03/03 01:31:51;;;;;;;25.43;15.95;;;;;;;2.78;80.51;99849.72;1713109;83;21037;-75
2022/03/03 01:34:18;;;;;;;23.40;15.58;;;;;;;2.79;80.46;99847.95;1710650;84;20966;-74
2022/03/03 01:36:45;;;;;;;19.30;14.20;;;;;;;2.79;80.44;99846.66;1710856;82;21433;-74
2022/03/03 01:39:12;;;;;;;20.45;14.83;;;;;;;2.79;80.44;99850.09;1711719;82;21792;-74
2022/03/03 01:41:40;;;;;;;20.17;15.18;;;;;;;2.79;80.41;99843.58;1711838;83;21041;-75
2022/03/03 01:44:08;;;;;;;21.45;15.48;;;;;;;2.80;80.38;99843.14;1710776;83;21414;-74
2022/03/03 01:46:35;;;;;;;22.25;16.17;;;;;;;2.78;80.35;99844.51;1710861;84;20958;-74
2022/03/03 01:49:02;;;;;;;21.62;15.55;;;;;;;2.78;80.33;99844.51;1710673;83;20998;-75
2022/03/03 01:51:29;;;;;;;21.42;15.55;;;;;;;2.78;80.24;99842.36;1710609;83;22410;-74
2022/03/03 01:53:58;;;;;;;21.62;15.15;;;;;;;2.77;80.22;99838.92;1710569;83;21153;-75
2022/03/03 01:56:26;;;;;;;23.20;15.95;;;;;;;2.77;80.19;99840.22;1711388;83;21380;-74
2022/03/03 01:58:53;;;;;;;24.05;15.60;;;;;;;2.76;80.13;99834.63;1711811;83;21029;-74
2022/03/03 02:01:20;;;;;;;25.15;17.57;;;;;;;2.74;80.06;99837.80;1710925;84;20997;-74
2022/03/03 02:03:47;;;;;;;27.42;18.40;;;;;;;2.74;80.06;99836.49;1710704;82;21831;-74
2022/03/03 02:06:14;;;;;;;27.55;18.02;;;;;;;2.74;80.06;99837.80;1711502;83;20858;-75
2022/03/03 02:08:41;;;;;;;28.62;19.48;;;;;;;2.73;80.03;99829.59;1712906;82;20958;-74
2022/03/03 02:11:08;;;;;;;26.48;17.87;;;;;;;2.74;80.06;99823.45;1712953;83;21068;-76
2022/03/03 02:13:36;;;;;;;26.07;18.17;;;;;;;2.76;80.00;99825.97;1713269;83;21464;-75
2022/03/03 02:16:03;;;;;;;26.87;18.77;;;;;;;2.72;79.89;99821.40;1712912;83;21699;-74
2022/03/03 02:18:31;;;;;;;28.50;18.95;;;;;;;2.66;79.81;99816.98;1702865;83;21412;-74
2022/03/03 02:20:58;;;;;;;25.23;18.20;;;;;;;2.64;79.84;99814.46;1712881;82;21041;-74
2022/03/03 02:23:26;;;;;;;27.48;18.92;;;;;;;2.64;79.83;99813.62;1712895;83;21465;-75
2022/03/03 02:25:53;;;;;;;27.70;19.37;;;;;;;2.59;79.81;99812.56;1712956;83;21073;-74
2022/03/03 02:28:20;;;;;;;28.67;20.02;;;;;;;2.55;79.83;99811.06;1712949;82;21841;-73
2022/03/03 02:30:47;;;;;;;28.57;19.57;;;;;;;2.54;79.81;99807.61;1712864;82;21417;-74
2022/03/03 02:33:14;;;;;;;30.20;19.87;;;;;;;2.52;79.76;99806.86;1713009;83;20942;-74
2022/03/03 02:35:41;;;;;;;28.32;19.45;;;;;;;2.53;79.77;99804.63;1712919;82;21006;-74
2022/03/03 02:38:08;;;;;;;28.85;19.90;;;;;;;2.53;79.84;99804.63;1713020;82;21326;-74
2022/03/03 02:40:35;;;;;;;28.50;19.90;;;;;;;2.53;79.86;99805.09;1713362;83;22467;-74
2022/03/03 02:43:02;;;;;;;31.00;19.85;;;;;;;2.53;79.83;99805.09;1713259;83;21033;-73
2022/03/03 02:45:30;;;;;;;28.20;19.85;;;;;;;2.53;79.83;99798.58;1713033;83;21477;-74
2022/03/03 02:47:57;;;;;;;29.07;19.90;;;;;;;2.55;79.82;99800.63;1713291;83;20974;-74
2022/03/03 02:50:28;;;;;;;26.40;19.40;;;;;;;2.53;79.73;99799.42;1713203;82;20993;-74
2022/03/03 02:52:58;;;;;;;28.30;19.65;;;;;;;2.53;79.71;99800.72;1713130;82;21859;-74
2022/03/03 02:55:26;;;;;;;27.22;18.85;;;;;;;2.51;79.71;99799.97;1713057;82;20986;-74
2022/03/03 02:57:56;;;;;;;29.85;18.80;;;;;;;2.52;79.73;99802.95;1713326;83;21049;-74
2022/03/03 03:00:26;;;;;;;23.80;17.23;;;;;;;2.51;79.73;99801.71;1713031;83;20989;-74
2022/03/03 03:02:53;;;;;;;24.35;18.50;;;;;;;2.50;79.69;99800.03;1713389;83;21001;-75
2022/03/03 03:05:20;;;;;;;24.43;17.35;;;;;;;2.48;79.68;99801.89;1713307;83;21799;-75
2022/03/03 03:07:48;;;;;;;24.40;18.15;;;;;;;2.46;79.67;99799.84;1716294;82;20946;-74
2022/03/03 03:10:15;;;;;;;25.02;17.52;;;;;;;2.46;79.69;99801.14;1711882;83;20961;-74
2022/03/03 03:12:42;;;;;;;24.15;16.75;;;;;;;2.46;79.70;99803.28;1711326;83;21009;-74
2022/03/03 03:15:09;;;;;;;23.05;16.00;;;;;;;2.48;79.73;99797.52;1711519;83;21068;-74
2022/03/03 03:17:37;;;;;;;24.30;17.02;;;;;;;2.44;79.66;99797.78;1711135;83;21850;-75
2022/03/03 03:20:06;;;;;;;23.87;17.05;;;;;;;2.37;79.59;99789.91;1711686;83;20961;-75
2022/03/03 03:22:34;;;;;;;23.70;17.67;;;;;;;2.32;79.64;99791.48;1711757;83;21417;-75
2022/03/03 03:25:07;;;;;;;24.57;18.40;;;;;;;2.28;79.65;99793.40;1711541;83;20997;-74
2022/03/03 03:27:38;;;;;;;25.30;17.92;;;;;;;2.24;79.69;99786.69;1711366;83;21025;-74
2022/03/03 03:30:07;;;;;;;26.00;18.32;;;;;;;2.26;79.77;99793.11;1711403;82;21979;-74
2022/03/03 03:32:35;;;;;;;26.07;17.27;;;;;;;2.27;79.75;99791.72;1712188;83;20953;-74
2022/03/03 03:35:04;;;;;;;28.40;19.35;;;;;;;2.26;79.75;99792.65;1711423;83;21022;-74
2022/03/03 03:37:32;;;;;;;26.25;18.07;;;;;;;2.25;79.77;99788.36;1711395;82;21030;-74
2022/03/03 03:39:59;;;;;;;26.93;18.05;;;;;;;2.24;79.83;99785.84;1711314;83;21045;-74
2022/03/03 03:42:26;;;;;;;27.00;17.65;;;;;;;2.21;79.84;99780.78;1711657;83;21773;-74
2022/03/03 03:44:53;;;;;;;25.72;15.93;;;;;;;2.20;79.87;99779.94;1711663;83;21408;-74
2022/03/03 03:47:20;;;;;;;28.80;15.53;;;;;;;2.22;79.88;99779.42;1711321;82;21037;-74
2022/03/03 03:49:47;;;;;;;45.25;14.18;;;;;;;2.22;79.85;99772.91;1711428;83;20954;-74
2022/03/03 03:52:14;;;;;;;30.82;15.05;;;;;;;2.22;79.85;99774.21;1711434;83;21365;-74
2022/03/03 03:54:42;;;;;;;22.05;12.78;;;;;;;2.19;79.82;99773.05;1711371;83;22277;-74
2022/03/03 03:57:09;;;;;;;21.10;13.83;;;;;;;2.16;79.84;99765.41;1711550;83;21022;-74
2022/03/03 03:59:36;;;;;;;23.73;14.13;;;;;;;2.14;79.88;99771.64;1711637;83;21416;-74
2022/03/03 04:02:05;;;;;;;27.27;11.88;;;;;;;2.11;79.93;99770.48;1711574;83;20985;-74
2022/03/03 04:04:32;;;;;;;26.45;13.22;;;;;;;2.09;79.99;99764.06;1711079;83;21001;-74
2022/03/03 04:06:59;;;;;;;23.40;13.35;;;;;;;2.06;79.93;99758.19;1711054;83;21743;-74
2022/03/03 04:09:26;;;;;;;25.30;13.03;;;;;;;2.04;80.04;99754.83;1711818;83;21465;-74
2022/03/03 04:11:53;;;;;;;25.62;13.22;;;;;;;2.04;80.10;99744.41;1710780;83;20946;-74
2022/03/03 04:14:21;;;;;;;24.15;12.55;;;;;;;2.04;80.12;99745.25;1710703;84;20997;-74
2022/03/03 04:16:48;;;;;;;20.88;13.03;;;;;;;2.01;80.10;99742.33;1711076;83;20998;-74
2022/03/03 04:19:15;;;;;;;18.57;11.80;;;;;;;2.00;80.13;99737.20;1712024;83;21887;-74
2022/03/03 04:21:42;;;;;;;20.00;11.90;;;;;;;1.98;80.10;99752.08;1710821;82;21025;-74
2022/03/03 04:24:10;;;;;;;20.02;12.15;;;;;;;1.95;80.08;99762.67;1710684;84;21021;-74
2022/03/03 04:26:37;;;;;;;26.73;12.68;;;;;;;1.94;80.04;99758.39;1710780;84;21408;-74
2022/03/03 04:29:05;;;;;;;31.62;12.53;;;;;;;1.93;80.08;99758.86;1711702;83;20954;-74
2022/03/03 04:31:33;;;;;;;19.12;10.78;;;;;;;1.94;80.12;99756.63;1710856;84;21917;-74
2022/03/03 04:34:01;;;;;;;21.25;10.68;;;;;;;1.96;80.14;99757.84;1712723;83;20989;-73
2022/03/03 04:36:28;;;;;;;13.80;9.28;;;;;;;1.93;80.12;99756.25;1715678;82;20972;-74
2022/03/03 04:38:56;;;;;;;19.65;10.20;;;;;;;1.88;80.00;99754.80;1714663;80;20978;-74
2022/03/03 04:41:23;;;;;;;25.20;10.60;;;;;;;1.84;80.00;99751.53;1713697;82;21006;-75
2022/03/03 04:43:50;;;;;;;26.60;11.05;;;;;;;1.83;80.01;99750.29;1711174;83;22197;-74
2022/03/03 04:46:17;;;;;;;22.45;11.25;;;;;;;1.82;80.07;99757.72;1711723;82;21425;-75
2022/03/03 04:48:44;;;;;;;21.95;10.03;;;;;;;1.83;80.09;99758.09;1711590;83;20965;-74
2022/03/03 04:51:11;;;;;;;21.80;9.93;;;;;;;1.84;80.13;99759.81;1711405;83;20962;-75
2022/03/03 04:53:38;;;;;;;31.35;9.78;;;;;;;1.84;80.13;99754.60;1712090;82;20958;-74
2022/03/03 04:56:07;;;;;;;20.77;8.50;;;;;;;1.82;80.13;99755.95;1711724;83;22514;-74
2022/03/03 04:58:34;;;;;;;29.23;8.70;;;;;;;1.79;80.07;99755.30;1710661;83;20944;-75
2022/03/03 05:01:01;;;;;;;23.95;7.80;;;;;;;1.72;79.99;99753.00;1711215;83;21010;-74
2022/03/03 05:03:29;;;;;;;18.85;8.95;;;;;;;1.67;80.02;99755.03;1711375;82;21261;-74
2022/03/03 05:05:56;;;;;;;25.15;9.10;;;;;;;1.63;80.01;99750.05;1711857;83;20958;-74
2022/03/03 05:08:23;;;;;;;45.10;8.75;;;;;;;1.61;80.08;99756.64;1711512;83;21825;-73
2022/03/03 05:10:52;;;;;;;37.88;9.18;;;;;;;1.59;80.07;99754.58;1711098;83;20997;-74
2022/03/03 05:13:19;;;;;;;20.15;9.00;;;;;;;1.56;80.09;99753.91;1711695;82;21040;-75
2022/03/03 05:15:46;;;;;;;21.55;9.78;;;;;;;1.56;80.17;99754.75;1676196;85;21005;-74
2022/03/03 05:18:13;;;;;;;16.55;8.65;;;;;;;1.59;80.22;99758.95;1678678;85;20977;-74
2022/03/03 05:20:40;;;;;;;18.37;7.58;;;;;;;1.60;80.20;99758.86;1678479;85;21840;-74
2022/03/03 05:23:08;;;;;;;25.37;8.85;;;;;;;1.61;80.18;99757.09;1678427;85;20965;-73
2022/03/03 05:25:35;;;;;;;11.60;8.50;;;;;;;1.61;80.17;99755.34;1678462;85;20969;-74
2022/03/03 05:28:03;;;;;;;13.68;7.97;;;;;;;1.60;80.14;99753.66;1678427;85;20997;-75
2022/03/03 05:30:30;;;;;;;12.28;8.33;;;;;;;1.62;80.13;99753.11;1678457;85;21083;-75
2022/03/03 05:32:57;;;;;;;11.20;7.87;;;;;;;1.61;80.15;99751.43;1678481;85;21839;-74
2022/03/03 05:35:24;;;;;;;13.60;7.60;;;;;;;1.65;80.19;99756.03;1678646;85;20957;-75
2022/03/03 05:37:51;;;;;;;12.50;7.42;;;;;;;1.64;80.20;99760.41;1678535;85;21056;-75
2022/03/03 05:40:18;;;;;;;10.70;6.72;;;;;;;1.64;80.17;99757.80;1678437;85;20977;-75
2022/03/03 05:42:45;;;;;;;27.15;7.12;;;;;;;1.64;80.16;99763.00;1678421;85;21013;-75
2022/03/03 05:45:12;;;;;;;15.43;7.50;;;;;;;1.65;80.09;99765.14;1678736;85;22465;-75
2022/03/03 05:47:39;;;;;;;25.85;8.00;;;;;;;1.58;79.96;99772.89;1678379;85;21032;-75
2022/03/03 05:50:10;;;;;;;9.70;6.55;;;;;;;1.52;79.93;99767.52;1678551;85;20957;-75
2022/03/03 05:52:37;;;;;;;19.65;7.15;;;;;;;1.49;79.84;99767.69;1678507;84;20974;-75
2022/03/03 05:55:05;;;;;;;17.27;7.10;;;;;;;1.39;79.64;99763.89;1678519;85;20976;-75
2022/03/03 05:57:42;;;;;;;10.08;7.33;;;;;;;1.30;79.59;99760.45;1678438;85;21832;-75
2022/03/03 06:00:13;;;;;;;11.70;7.60;;;;;;;1.25;79.59;99762.43;1658001;85;21005;-75
2022/03/03 06:02:50;;;;;;;13.38;7.50;;;;;;;1.25;79.75;99760.67;1710660;84;21033;-75
2022/03/03 06:05:27;;;;;;;9.48;7.62;;;;;;;1.30;79.86;99757.85;1677586;85;21428;-75
2022/03/03 06:08:05;;;;;;;13.65;7.80;;;;;;;1.31;79.91;99759.07;1678245;85;21005;-74
2022/03/03 06:10:34;;;;;;;12.37;7.33;;;;;;;1.34;79.95;99752.86;1713347;82;21465;-74
2022/03/03 06:13:24;;;;;;;10.50;7.75;;;;;;;1.37;80.05;99748.36;1676286;85;21044;-74
2022/03/03 06:15:52;;;;;;;8.85;6.95;;;;;;;1.43;80.18;99744.58;1677013;85;20989;-74
2022/03/03 06:18:25;;;;;;;9.93;7.30;;;;;;;1.49;80.26;99744.27;1678251;85;21028;-74
2022/03/03 06:20:52;;;;;;;15.53;7.45;;;;;;;1.53;80.31;99741.87;1712788;83;21419;-74
2022/03/03 06:23:19;;;;;;;10.90;7.75;;;;;;;1.58;80.32;99744.25;1712024;83;22496;-74
2022/03/03 06:25:50;;;;;;;14.68;8.20;;;;;;;1.61;80.34;99734.52;1676432;85;20997;-74
2022/03/03 06:28:18;;;;;;;18.27;9.95;;;;;;;1.66;80.37;99737.73;1678297;85;20965;-74
2022/03/03 06:30:45;;;;;;;19.30;10.65;;;;;;;1.71;80.38;99736.16;1713367;83;20974;-74
2022/03/03 06:33:11;;;;;;;20.08;9.90;;;;;;;1.73;80.31;99733.85;1710831;83;20966;-74
2022/03/03 06:35:40;;;;;;;16.02;9.13;;;;;;;1.77;80.32;99738.92;1677445;85;22243;-74
2022/03/03 06:38:07;;;;;;;14.93;10.05;;;;;;;1.82;80.32;99731.69;1678304;85;20957;-74
2022/03/03 06:40:35;;;;;;;14.93;9.65;;;;;;;1.85;80.29;99725.03;1712379;82;20962;-74
2022/03/03 06:43:02;;;;;;;12.37;8.10;;;;;;;1.88;80.31;99723.09;1678994;84;21013;-74
2022/03/03 06:45:30;;;;;;;12.85;8.55;;;;;;;1.91;80.27;99719.47;1678321;84;21060;-75
2022/03/03 06:47:59;;;;;;;15.83;9.33;;;;;;;1.92;80.27;99719.38;1678467;85;21885;-74
2022/03/03 06:50:26;;;;;;;14.95;9.88;;;;;;;1.95;80.26;99715.34;1678094;85;21330;-74
2022/03/03 06:52:53;;;;;;;15.15;9.55;;;;;;;1.97;80.23;99715.25;1678171;85;20996;-74
2022/03/03 06:55:24;;;;;;;12.90;8.98;;;;;;;1.99;80.21;99715.53;1678709;85;21005;-74
2022/03/03 06:57:55;;;;;;;14.50;9.20;;;;;;;2.04;80.20;99720.97;1669791;84;21013;-74
2022/03/03 07:00:25;;;;;;;13.80;9.33;;;;;;;2.08;80.14;99719.86;1648108;86;21797;-74
2022/03/03 07:02:53;;;;;;;12.73;8.60;;;;;;;2.13;80.18;99723.91;1652738;86;21020;-74
2022/03/03 07:05:21;;;;;;;13.18;8.80;;;;;;;2.17;80.14;99728.02;1652899;85;21020;-74
2022/03/03 07:07:52;;;;;;;13.38;8.63;;;;;;;2.18;80.08;99724.48;1678349;84;21528;-74
2022/03/03 07:10:23;;;;;;;12.50;8.80;;;;;;;2.24;80.14;99727.22;1676302;85;21008;-74
2022/03/03 07:12:48;;;;;;;12.35;8.68;;;;;;;2.29;80.14;99733.84;1711654;83;22658;-74
2022/03/03 07:15:14;;;;;;;11.53;8.53;;;;;;;2.32;80.04;99731.55;1712760;82;20945;-75
2022/03/03 07:17:47;;;;;;;11.68;8.20;;;;;;;2.30;79.88;99726.40;1710837;83;20999;-74
2022/03/03 07:20:18;;;;;;;13.03;9.08;;;;;;;2.28;79.73;99730.86;1676261;85;21017;-74
2022/03/03 07:23:03;;;;;;;14.10;9.03;;;;;;;2.27;79.70;99736.16;1712880;82;20966;-76
2022/03/03 07:25:48;;;;;;;12.07;8.68;;;;;;;2.28;79.66;99735.23;1712208;83;21485;-75
2022/03/03 07:28:13;;;;;;;12.35;8.80;;;;;;;2.27;79.61;99737.47;1676077;85;20997;-75
2022/03/03 07:30:42;;;;;;;14.43;8.88;;;;;;;2.25;79.51;99733.64;1676357;85;21000;-75
2022/03/03 07:33:29;;;;;;;13.25;8.65;;;;;;;2.28;79.49;99739.14;1676316;85;21460;-75
2022/03/03 07:35:57;;;;;;;12.93;8.65;;;;;;;2.32;79.46;99735.46;1710997;83;20982;-75
2022/03/03 07:38:36;;;;;;;12.70;8.48;;;;;;;2.33;79.28;99734.99;1711545;83;23097;-75
2022/03/03 07:41:03;;;;;;;11.78;8.60;;;;;;;2.34;79.24;99737.98;1712146;83;21041;-75
2022/03/03 07:43:30;;;;;;;12.15;8.98;;;;;;;2.34;79.16;99734.06;1712441;83;21061;-75
2022/03/03 07:45:57;;;;;;;13.58;9.20;;;;;;;2.30;78.98;99738.12;1712881;83;20986;-75
2022/03/03 07:48:25;;;;;;;14.87;9.80;;;;;;;2.25;78.86;99737.55;1712962;83;20954;-75
2022/03/03 07:50:52;;;;;;;12.75;9.80;;;;;;;2.25;78.86;99738.02;1678459;85;21795;-75
2022/03/03 07:53:19;;;;;;;16.42;9.63;;;;;;;2.28;78.89;99736.08;1678651;85;20973;-75
2022/03/03 07:55:50;;;;;;;13.32;9.25;;;;;;;2.28;78.81;99734.77;1678511;85;20992;-75
2022/03/03 07:58:20;;;;;;;13.88;9.40;;;;;;;2.32;78.83;99734.59;1678596;84;21009;-75
2022/03/03 08:00:53;;;;;;;14.40;9.93;;;;;;;2.33;78.81;99726.71;1678563;84;20965;-75
2022/03/03 08:03:21;;;;;;;13.85;9.95;;;;;;;2.34;78.76;99723.17;1679118;85;21836;-74
2022/03/03 08:05:51;;;;;;;13.98;10.13;;;;;;;2.39;78.80;99724.20;1678435;85;20949;-75
2022/03/03 08:08:25;;;;;;;13.62;9.60;;;;;;;2.45;78.84;99719.97;1712702;82;20966;-75
2022/03/03 08:10:59;;;;;;;13.70;9.75;;;;;;;2.49;78.79;99718.85;1677177;84;21012;-75
2022/03/03 08:13:28;;;;;;;15.55;11.00;;;;;;;2.50;78.52;99715.31;1678435;85;20949;-75
2022/03/03 08:15:55;;;;;;;16.50;11.68;;;;;;;2.46;78.36;99713.36;1712483;83;22243;-75
2022/03/03 08:18:28;;;;;;;14.87;10.48;;;;;;;2.49;78.34;99712.34;1711380;83;20997;-75
2022/03/03 08:20:56;;;;;;;14.50;10.53;;;;;;;2.53;78.36;99700.36;1701199;84;20952;-75
2022/03/03 08:23:26;;;;;;;16.30;11.40;;;;;;;2.59;78.30;99703.06;1710928;84;21014;-75
2022/03/03 08:25:54;;;;;;;17.75;11.53;;;;;;;2.66;78.31;99699.65;1711729;83;21045;-75
2022/03/03 08:28:26;;;;;;;12.73;9.08;;;;;;;2.71;78.20;99694.56;1713279;83;22611;-75
2022/03/03 08:31:03;;;;;;;14.90;10.80;;;;;;;2.78;77.98;99695.86;1711825;83;20985;-73
2022/03/03 08:33:52;;;;;;;14.53;11.10;;;;;;;2.77;77.61;99688.97;1711754;83;21467;-75
2022/03/03 08:36:34;;;;;;;15.58;11.22;;;;;;;2.81;77.62;99685.27;1710697;84;21037;-75
2022/03/03 08:39:05;;;;;;;13.75;9.95;;;;;;;2.87;77.60;99685.36;1710656;83;21001;-74
2022/03/03 08:41:37;;;;;;;12.37;10.10;;;;;;;2.94;77.53;99684.55;1676441;85;21765;-74
2022/03/03 08:44:07;;;;;;;14.30;10.65;;;;;;;2.99;77.39;99685.97;1711019;82;20953;-76
2022/03/03 08:46:36;;;;;;;13.40;9.73;;;;;;;3.03;77.14;99680.09;1712910;83;20878;-75
2022/03/03 08:49:08;;;;;;;13.00;9.75;;;;;;;3.07;76.98;99686.32;1713445;83;20980;-75
2022/03/03 08:51:35;;;;;;;13.62;10.28;;;;;;;3.10;76.64;99682.72;1678090;85;21425;-75
2022/03/03 08:54:03;;;;;;;13.32;10.30;;;;;;;3.14;76.36;99677.67;1702946;83;22246;-75
2022/03/03 08:56:30;;;;;;;12.15;9.80;;;;;;;3.18;75.92;99680.92;1710640;82;21049;-74
2022/03/03 08:58:57;;;;;;;14.25;10.68;;;;;;;3.14;75.54;99677.67;1710723;82;21097;-74
2022/03/03 09:01:24;;;;;;;15.48;11.05;;;;;;;3.13;75.35;99678.14;1711792;82;20962;-75
2022/03/03 09:03:51;;;;;;;14.38;10.78;;;;;;;3.20;75.29;99678.63;1712884;82;21060;-75
2022/03/03 09:06:19;;;;;;;16.30;11.90;;;;;;;3.24;74.96;99682.71;1712304;83;22210;-75
2022/03/03 09:08:46;;;;;;;15.50;11.48;;;;;;;3.23;74.52;99681.50;1715837;83;20937;-75
2022/03/03 09:11:15;;;;;;;17.02;12.60;;;;;;;3.22;74.41;99687.19;1718348;83;20997;-75
2022/03/03 09:13:43;;;;;;;14.60;10.93;;;;;;;3.25;74.33;99684.38;1716581;82;20966;-75
2022/03/03 09:16:11;;;;;;;15.63;11.22;;;;;;;3.27;74.14;99684.29;1712534;83;20998;-75
2022/03/03 09:18:38;;;;;;;14.73;11.10;;;;;;;3.31;74.06;99689.25;1711284;83;22222;-75
2022/03/03 09:21:06;;;;;;;15.85;10.93;;;;;;;3.34;74.00;99692.97;1702750;83;20997;-75
2022/03/03 09:23:33;;;;;;;13.43;9.78;;;;;;;3.38;73.85;99685.81;1711574;83;20989;-75
2022/03/03 09:26:02;;;;;;;13.58;10.00;;;;;;;3.41;73.37;99688.22;1711193;83;21065;-75
2022/03/03 09:28:30;;;;;;;14.15;10.80;;;;;;;3.42;73.26;99685.52;1711366;83;21056;-75
2022/03/03 09:30:59;;;;;;;14.93;11.00;;;;;;;3.47;73.23;99686.52;1711521;83;20930;-74
2022/03/03 09:33:27;;;;;;;16.67;11.20;;;;;;;3.50;73.12;99690.74;1711421;83;21467;-74
2022/03/03 09:35:54;;;;;;;22.98;17.32;;;;;;;3.51;72.94;99691.95;1711462;83;20958;-74
2022/03/03 09:38:21;;;;;;;20.17;14.87;;;;;;;3.51;72.65;99687.20;1710814;83;21001;-75
2022/03/03 09:40:48;;;;;;;16.55;11.40;;;;;;;3.50;72.58;99688.97;1711329;83;20950;-75
2022/03/03 09:43:15;;;;;;;15.32;10.93;;;;;;;3.52;72.38;99684.95;1711540;83;21802;-75
2022/03/03 09:45:43;;;;;;;14.75;10.35;;;;;;;3.55;72.36;99676.92;1711165;83;21431;-74
2022/03/03 09:48:10;;;;;;;13.40;9.90;;;;;;;3.59;72.34;99677.12;1711366;83;21040;-75
2022/03/03 09:50:39;;;;;;;14.10;10.90;;;;;;;3.60;72.23;99676.19;1678652;84;20957;-76
2022/03/03 09:53:13;;;;;;;14.78;10.75;;;;;;;3.56;71.86;99674.22;1711322;82;20938;-75
2022/03/03 09:55:41;;;;;;;12.78;9.90;;;;;;;3.56;71.90;99667.69;1711389;83;21841;-75
2022/03/03 09:58:08;;;;;;;13.22;9.48;;;;;;;3.60;71.76;99671.80;1711253;83;20998;-74
2022/03/03 10:00:40;;;;;;;13.08;10.03;;;;;;;3.61;71.42;99663.50;1711353;82;20989;-75
2022/03/03 10:03:15;;;;;;;14.13;10.70;;;;;;;3.56;71.05;99666.37;1711265;83;21433;-75
2022/03/03 10:05:52;;;;;;;13.68;10.45;;;;;;;3.53;70.90;99664.44;1710760;83;20950;-75
2022/03/03 10:08:24;;;;;;;16.23;11.33;;;;;;;3.53;70.95;99665.27;1711280;83;21831;-75
2022/03/03 10:11:00;;;;;;;13.03;10.43;;;;;;;3.56;70.98;99660.32;1700973;83;21049;-75
2022/03/03 10:13:52;;;;;;;14.87;10.68;;;;;;;3.60;71.08;99659.22;1712027;82;21402;-75
2022/03/03 10:16:31;;;;;;;12.90;10.00;;;;;;;3.66;71.22;99661.42;1708479;83;21034;-75
2022/03/03 10:19:04;;;;;;;14.90;10.28;;;;;;;3.70;71.12;99663.77;1710591;83;20966;-75
2022/03/03 10:21:38;;;;;;;14.73;10.78;;;;;;;3.72;70.78;99651.91;1713154;83;21772;-75
2022/03/03 10:24:22;;;;;;;15.18;11.08;;;;;;;3.66;70.51;99654.43;1711373;83;20958;-75
2022/03/03 10:27:04;;;;;;;13.35;10.53;;;;;;;3.68;70.60;99655.67;1711946;83;21014;-75
2022/03/03 10:29:34;;;;;;;15.38;10.72;;;;;;;3.72;70.60;99651.91;1711997;82;21053;-74
2022/03/03 10:32:05;;;;;;;14.98;11.33;;;;;;;3.79;70.72;99650.61;1702582;83;21025;-75
2022/03/03 10:34:34;;;;;;;12.90;9.65;;;;;;;3.85;70.82;99644.13;1713183;83;21888;-74
2022/03/03 10:37:09;;;;;;;15.05;10.25;;;;;;;3.86;70.67;99642.76;1683071;85;20960;-75
2022/03/03 10:39:57;;;;;;;14.75;10.20;;;;;;;3.88;70.51;99642.19;1665614;85;20977;-74
2022/03/03 10:42:26;;;;;;;13.65;9.65;;;;;;;3.89;70.26;99637.33;1665797;86;21077;-74
2022/03/03 10:45:09;;;;;;;13.65;10.30;;;;;;;3.90;70.20;99639.00;1674447;85;21037;-75
2022/03/03 10:47:40;;;;;;;14.50;10.30;;;;;;;3.90;69.80;99637.70;1624147;85;21888;-75
2022/03/03 10:50:08;;;;;;;15.80;10.38;;;;;;;3.86;69.39;99633.61;1655332;85;21429;-74
2022/03/03 10:52:40;;;;;;;14.65;10.20;;;;;;;3.87;69.35;99636.59;1674043;85;21429;-76
2022/03/03 10:55:17;;;;;;;14.43;10.32;;;;;;;3.89;69.22;99633.88;1673985;85;20981;-76
2022/03/03 10:57:58;;;;;;;14.15;10.40;;;;;;;3.84;69.26;99630.23;1673971;84;21033;-76
2022/03/03 11:00:27;;;;;;;12.70;9.78;;;;;;;3.85;69.43;99632.38;1656332;85;22555;-75
2022/03/03 11:03:01;;;;;;;12.68;9.55;;;;;;;3.87;69.33;99633.15;1674049;85;20894;-75
2022/03/03 11:05:30;;;;;;;13.75;10.60;;;;;;;3.86;69.32;99634.05;1674166;85;20970;-75
2022/03/03 11:07:58;;;;;;;13.85;10.05;;;;;;;3.84;69.17;99639.84;1674079;85;21005;-74
2022/03/03 11:10:29;;;;;;;13.10;9.83;;;;;;;3.81;69.17;99633.05;1674147;84;21030;-75
2022/03/03 11:12:57;;;;;;;13.32;10.60;;;;;;;3.87;69.24;99630.53;1654877;85;21948;-75
2022/03/03 11:15:26;;;;;;;14.10;10.90;;;;;;;3.92;69.29;99628.45;1674105;84;20981;-75
2022/03/03 11:17:55;;;;;;;14.35;10.98;;;;;;;3.96;69.15;99629.48;1654784;85;21037;-75
2022/03/03 11:20:23;;;;;;;17.62;12.63;;;;;;;3.97;69.18;99625.92;1674063;85;21085;-74
2022/03/03 11:22:56;;;;;;;17.00;12.50;;;;;;;4.01;69.38;99618.25;1674371;85;21473;-75
2022/03/03 11:25:35;;;;;;;16.23;11.68;;;;;;;4.09;69.44;99616.45;1673754;84;22073;-75
2022/03/03 11:28:08;;;;;;;14.68;10.88;;;;;;;4.18;69.42;99615.86;1674346;85;21014;-75
2022/03/03 11:30:47;;;;;;;14.78;10.80;;;;;;;4.24;69.41;99613.30;1674082;85;21101;-74
2022/03/03 11:33:33;;;;;;;16.32;10.90;;;;;;;4.30;69.52;99612.91;1655680;85;20993;-75
2022/03/03 11:36:09;;;;;;;14.93;10.40;;;;;;;4.36;69.53;99611.67;1674194;85;21084;-75
2022/03/03 11:38:47;;;;;;;13.50;10.30;;;;;;;4.42;69.33;99615.17;1674124;85;22495;-75